Time;durP1;ratioP1;P1;durP2;ratioP2;P2;SDS_P1;SDS_P2;PMS_P1;PMS_P2;Temp;Humidity;BMP_temperature;BMP_pressure;BME280_temperature;BME280_humidity;BME280_pressure;Samples;Min_cycle;Max_cycle;Signal;HPM_P1;HPM_P2
2022/11/18 00:00:02;;;;;;;8.50;6.53;;;3.10;99.90;3.90;95223.00;;;;5036670;28;20424;-70
2022/11/18 00:02:51;;;;;;;8.43;5.57;;;3.10;99.90;4.20;95227.00;;;;5049622;28;20419;-70
2022/11/18 00:05:40;;;;;;;7.17;6.10;;;3.10;99.90;3.90;95225.00;;;;5042055;28;20439;-69
2022/11/18 00:08:29;;;;;;;8.87;5.77;;;3.10;99.90;3.70;95217.00;;;;5038686;28;20431;-70
2022/11/18 00:14:26;;;;;;;10.50;6.97;;;3.00;99.90;3.50;95222.00;;;;5032995;28;20644;-69
2022/11/18 00:17:14;;;;;;;6.70;4.67;;;3.00;99.90;3.40;95232.00;;;;5049489;28;21173;-69
2022/11/18 00:20:04;;;;;;;6.00;5.00;;;2.90;99.90;3.20;95234.00;;;;5049429;28;20465;-69
2022/11/18 00:22:53;;;;;;;5.90;4.83;;;2.80;99.90;3.60;95222.00;;;;5044441;28;20428;-70
2022/11/18 00:25:41;;;;;;;8.00;5.97;;;2.70;99.90;3.60;95219.00;;;;5043505;28;20440;-70
2022/11/18 00:28:30;;;;;;;6.93;5.43;;;2.70;99.90;3.60;95209.00;;;;5036593;28;20436;-69
2022/11/18 00:31:21;;;;;;;4.07;3.67;;;2.80;99.90;3.60;95205.00;;;;5039243;28;20943;-70
2022/11/18 00:34:12;;;;;;;8.37;5.00;;;2.80;99.90;3.50;95194.00;;;;5040663;28;21049;-69
2022/11/18 00:37:01;;;;;;;6.97;6.00;;;2.90;99.90;3.90;95187.00;;;;5043386;28;20428;-69
2022/11/18 00:39:50;;;;;;;5.73;4.87;;;3.00;99.90;4.00;95187.00;;;;5049015;28;20416;-70
2022/11/18 00:42:55;;;;;;;9.30;5.47;;;3.00;99.90;3.70;95191.00;;;;5038065;28;20977;-70
2022/11/18 00:45:43;;;;;;;10.33;5.37;;;3.00;99.90;4.30;95190.00;;;;5038905;28;20819;-69
2022/11/18 00:48:34;;;;;;;6.30;5.33;;;3.10;99.90;4.50;95201.00;;;;5051770;28;20431;-70
2022/11/18 00:51:22;;;;;;;6.73;5.90;;;3.30;99.90;4.20;95207.00;;;;5053172;28;20431;-70
2022/11/18 00:54:11;;;;;;;8.23;4.80;;;3.30;99.90;3.40;95212.00;;;;5052146;28;20475;-69
2022/11/18 00:57:00;;;;;;;6.47;4.87;;;3.20;99.90;3.80;95212.00;;;;5044498;28;20431;-69
2022/11/18 00:59:48;;;;;;;6.93;5.30;;;3.00;99.90;3.90;95206.00;;;;5048914;28;20803;-69
2022/11/18 01:02:37;;;;;;;6.10;4.67;;;3.10;99.90;3.50;95187.00;;;;5041096;28;20445;-70
2022/11/18 01:05:27;;;;;;;5.03;3.53;;;2.90;99.90;3.20;95184.00;;;;5041994;28;20946;-69
2022/11/18 01:08:17;;;;;;;8.73;4.77;;;2.80;99.90;3.60;95178.00;;;;5051826;28;20416;-69
2022/11/18 01:14:08;;;;;;;9.27;3.77;;;2.90;99.90;3.80;95153.00;;;;5048568;28;20463;-69
2022/11/18 01:16:58;;;;;;;5.60;3.87;;;2.90;99.90;3.80;95144.00;;;;5052826;28;20435;-70
2022/11/18 01:19:47;;;;;;;5.60;4.30;;;3.00;99.90;3.80;95138.00;;;;5035957;28;20431;-69
2022/11/18 01:22:37;;;;;;;5.23;4.13;;;3.00;99.90;3.90;95138.00;;;;5040046;28;20434;-69
2022/11/18 01:25:26;;;;;;;7.43;5.87;;;3.10;99.90;3.50;95127.00;;;;5050573;28;20455;-69
2022/11/18 01:28:16;;;;;;;5.33;4.07;;;3.00;99.90;3.40;95111.00;;;;5050628;28;21148;-69
2022/11/18 01:31:10;;;;;;;5.40;4.27;;;2.90;99.90;3.70;95110.00;;;;5049382;28;20442;-69
2022/11/18 01:33:58;;;;;;;8.37;4.57;;;2.90;99.90;4.00;95101.00;;;;5042424;28;20461;-69
2022/11/18 01:36:47;;;;;;;6.73;5.13;;;2.90;99.90;4.20;95097.00;;;;5053138;28;20545;-70
2022/11/18 01:39:37;;;;;;;8.03;5.80;;;3.10;99.90;4.10;95089.00;;;;5052058;28;20427;-69
2022/11/18 01:42:26;;;;;;;14.97;4.47;;;3.20;99.90;3.60;95088.00;;;;5041449;28;20424;-69
2022/11/18 01:45:33;;;;;;;5.23;3.83;;;3.10;99.90;2.90;95086.00;;;;5043355;28;20455;-69
2022/11/18 01:48:26;;;;;;;6.23;4.13;;;2.80;99.90;3.00;95088.00;;;;5039003;28;20431;-69
2022/11/18 01:51:17;;;;;;;6.20;4.37;;;2.70;99.90;3.20;95063.00;;;;5041061;28;20810;-70
2022/11/18 01:54:10;;;;;;;3.13;2.47;;;2.70;99.90;3.60;95074.00;;;;5050974;28;20825;-69
2022/11/18 01:57:08;;;;;;;3.90;2.80;;;2.80;99.90;3.30;95070.00;;;;5050871;28;20451;-69
2022/11/18 01:59:59;;;;;;;5.83;4.63;;;2.80;99.90;3.60;95074.00;;;;5051311;28;20848;-72
2022/11/18 02:02:49;;;;;;;4.27;3.50;;;2.90;99.90;3.70;95077.00;;;;5052030;28;20431;-68
2022/11/18 02:05:40;;;;;;;4.53;4.03;;;3.00;99.90;4.00;95071.00;;;;5051080;28;20450;-68
2022/11/18 02:08:30;;;;;;;4.43;3.73;;;3.00;99.90;4.10;95077.00;;;;5050432;28;20427;-69
2022/11/18 02:14:30;;;;;;;3.97;3.20;;;3.30;99.90;4.00;95085.00;;;;5051666;28;20475;-69
2022/11/18 02:17:36;;;;;;;4.47;3.50;;;3.20;99.90;3.80;95078.00;;;;5051491;28;20427;-69
2022/11/18 02:20:31;;;;;;;4.07;3.63;;;3.20;99.90;4.00;95073.00;;;;5050366;28;20819;-68
2022/11/18 02:24:02;;;;;;;3.37;3.07;;;3.10;99.90;4.00;95072.00;;;;5038649;28;20790;-69
2022/11/18 02:27:37;;;;;;;3.50;3.20;;;3.10;99.90;4.10;95067.00;;;;5034631;28;20435;-69
2022/11/18 02:30:30;;;;;;;5.97;3.10;;;3.10;99.90;4.20;95076.00;;;;5042652;28;20438;-69
2022/11/18 02:33:26;;;;;;;8.10;3.63;;;3.20;99.90;3.90;95079.00;;;;5051317;28;20428;-69
2022/11/18 02:36:22;;;;;;;5.70;3.77;;;3.20;99.90;4.00;95082.00;;;;5036481;28;20447;-69
2022/11/18 02:39:23;;;;;;;7.43;3.80;;;3.20;99.90;4.20;95087.00;;;;5049706;28;20798;-69
2022/11/18 02:42:15;;;;;;;6.10;3.63;;;3.20;99.90;4.10;95093.00;;;;5040052;28;20435;-69
2022/11/18 02:45:10;;;;;;;4.57;3.60;;;3.20;99.90;3.80;95081.00;;;;5044012;28;20451;-69
2022/11/18 02:48:08;;;;;;;9.70;4.60;;;3.20;99.90;3.70;95067.00;;;;5050322;28;20424;-69
2022/11/18 02:50:58;;;;;;;3.43;2.90;;;3.10;99.90;4.20;95077.00;;;;5051331;28;21041;-69
2022/11/18 02:53:49;;;;;;;8.83;3.80;;;3.10;99.90;4.40;95074.00;;;;5050217;28;20466;-69
2022/11/18 02:56:38;;;;;;;4.90;3.47;;;3.20;99.90;4.40;95078.00;;;;5050185;28;20458;-69
2022/11/18 02:59:28;;;;;;;9.20;4.23;;;3.30;99.90;4.10;95074.00;;;;5040339;28;20423;-69
2022/11/18 03:02:20;;;;;;;4.37;3.30;;;3.20;99.90;3.60;95073.00;;;;5037381;28;20430;-70
2022/11/18 03:05:16;;;;;;;7.97;3.97;;;3.10;99.90;3.60;95071.00;;;;5049495;28;20455;-70
2022/11/18 03:08:12;;;;;;;8.37;4.03;;;3.00;99.90;3.90;95069.00;;;;5050209;28;20469;-69
2022/11/18 03:11:12;;;;;;;7.87;3.70;;;3.00;99.90;3.80;95066.00;;;;5042341;28;20431;-69
2022/11/18 03:14:16;;;;;;;4.30;3.50;;;3.00;99.90;3.90;95063.00;;;;5045370;28;20882;-69
2022/11/18 03:17:11;;;;;;;5.13;3.63;;;3.00;99.90;3.50;95067.00;;;;5038769;28;20443;-70
2022/11/18 03:20:17;;;;;;;5.30;3.40;;;2.90;99.90;3.30;95053.00;;;;5049125;28;20932;-70
2022/11/18 03:23:12;;;;;;;4.57;3.50;;;2.80;99.90;3.30;95060.00;;;;5049137;28;20434;-69
2022/11/18 03:26:05;;;;;;;4.87;3.83;;;2.80;99.90;3.70;95059.00;;;;5044719;28;20498;-69
2022/11/18 03:29:01;;;;;;;5.97;4.90;;;2.80;99.90;4.10;95067.00;;;;5048904;28;20439;-68
2022/11/18 03:31:55;;;;;;;8.37;3.43;;;2.90;99.90;3.90;95065.00;;;;5049338;28;20436;-69
2022/11/18 03:34:48;;;;;;;4.10;3.70;;;3.00;99.90;3.40;95066.00;;;;5044432;28;20466;-68
2022/11/18 03:37:40;;;;;;;5.07;3.90;;;3.00;99.90;3.70;95082.00;;;;5049712;28;20427;-70
2022/11/18 03:40:32;;;;;;;4.17;2.37;;;2.90;99.90;3.40;95088.00;;;;5049291;28;20443;-69
2022/11/18 03:43:25;;;;;;;4.43;3.27;;;2.90;99.90;3.20;95079.00;;;;5033391;28;20428;-68
2022/11/18 03:46:18;;;;;;;4.93;3.53;;;2.90;99.90;3.50;95074.00;;;;5038419;28;20466;-69
2022/11/18 03:49:12;;;;;;;3.40;3.10;;;2.70;99.90;3.40;95067.00;;;;5036292;28;20477;-69
2022/11/18 03:52:13;;;;;;;5.50;4.03;;;2.80;99.90;3.60;95050.00;;;;5049603;28;20419;-68
2022/11/18 03:55:11;;;;;;;5.00;4.10;;;3.00;99.90;3.80;95066.00;;;;5049307;28;20498;-68
2022/11/18 03:58:06;;;;;;;4.57;3.47;;;2.90;99.90;3.80;95063.00;;;;5041958;28;20526;-69
2022/11/18 04:01:01;;;;;;;4.87;3.83;;;2.90;99.90;3.70;95059.00;;;;5037746;28;20837;-69
2022/11/18 04:03:50;;;;;;;11.00;3.23;;;3.00;99.90;3.30;95047.00;;;;5040746;28;20434;-68
2022/11/18 04:06:45;;;;;;;3.90;3.60;;;3.00;99.90;3.30;95037.00;;;;5048924;28;20435;-72
2022/11/18 04:09:41;;;;;;;5.00;3.40;;;2.90;99.90;3.30;95044.00;;;;5048928;28;20416;-69
2022/11/18 04:12:35;;;;;;;3.80;3.50;;;2.90;99.90;3.40;95041.00;;;;5047700;28;20931;-69
2022/11/18 04:15:25;;;;;;;5.63;4.07;;;2.80;99.90;3.80;95037.00;;;;5051896;28;20471;-71
2022/11/18 04:18:14;;;;;;;6.03;4.80;;;2.90;99.90;3.70;95034.00;;;;5052414;28;20430;-69
2022/11/18 04:21:03;;;;;;;4.47;3.73;;;2.90;99.90;4.00;95019.00;;;;5052873;28;20415;-69
2022/11/18 04:23:51;;;;;;;3.87;3.47;;;2.90;99.90;3.50;95021.00;;;;5053866;28;20423;-71
2022/11/18 04:26:40;;;;;;;2.90;2.40;;;2.90;99.90;3.50;95015.00;;;;5036157;28;20811;-69
2022/11/18 04:29:30;;;;;;;4.63;3.80;;;2.90;99.90;4.00;95029.00;;;;5045916;28;20442;-68
2022/11/18 04:32:19;;;;;;;4.07;3.00;;;2.90;99.90;4.00;95024.00;;;;5053160;28;20468;-69
2022/11/18 04:35:08;;;;;;;5.77;3.43;;;2.90;99.90;3.70;95021.00;;;;5052895;28;20471;-68
2022/11/18 04:37:57;;;;;;;3.53;3.07;;;3.00;99.90;3.80;95038.00;;;;5041251;28;20434;-69
2022/11/18 04:40:46;;;;;;;4.37;3.47;;;3.00;99.90;3.90;95030.00;;;;5052329;28;20466;-69
2022/11/18 04:43:35;;;;;;;3.67;3.00;;;3.10;99.90;3.90;95021.00;;;;5036518;28;20422;-69
2022/11/18 04:46:25;;;;;;;4.73;3.50;;;3.10;99.90;3.70;95021.00;;;;5052964;28;20466;-69
2022/11/18 04:49:15;;;;;;;4.07;3.63;;;3.10;99.90;3.70;95013.00;;;;5053024;28;20969;-70
2022/11/18 04:52:05;;;;;;;3.90;3.17;;;3.00;99.90;4.00;95002.00;;;;5052939;28;20434;-68
2022/11/18 04:54:54;;;;;;;1.90;1.80;;;3.00;99.90;3.30;94991.00;;;;5047436;28;20475;-70
2022/11/18 04:57:42;;;;;;;3.07;2.70;;;2.90;99.90;2.90;94995.00;;;;5040131;28;20447;-68
2022/11/18 05:00:31;;;;;;;4.07;3.13;;;2.80;99.90;3.40;94994.00;;;;5050075;28;20416;-69
2022/11/18 05:03:21;;;;;;;4.03;3.60;;;2.70;99.90;3.50;94990.00;;;;5052661;28;20428;-69
2022/11/18 05:06:10;;;;;;;4.03;3.23;;;2.80;99.90;3.70;94999.00;;;;5049363;28;20490;-69
2022/11/18 05:09:00;;;;;;;4.07;3.40;;;2.90;99.90;3.80;95001.00;;;;5042374;28;20440;-69
2022/11/18 05:14:54;;;;;;;4.90;3.30;;;3.10;99.90;4.40;95009.00;;;;5039327;28;20474;-69
2022/11/18 05:17:43;;;;;;;5.27;3.57;;;3.20;99.90;4.40;95012.00;;;;5045411;28;20442;-68
2022/11/18 05:20:33;;;;;;;4.27;3.50;;;3.30;99.90;3.90;95003.00;;;;5040894;28;20928;-70
2022/11/18 05:23:24;;;;;;;4.43;3.00;;;3.30;99.90;3.70;94997.00;;;;5037376;28;20489;-70
2022/11/18 05:26:13;;;;;;;4.03;3.13;;;3.20;99.90;3.70;95002.00;;;;5051252;28;21221;-70
2022/11/18 05:29:02;;;;;;;4.83;4.10;;;3.10;99.90;4.20;95013.00;;;;5051732;28;20439;-68
2022/11/18 05:31:51;;;;;;;6.93;3.10;;;3.20;99.90;4.00;94996.00;;;;5051327;28;20956;-69
2022/11/18 05:34:41;;;;;;;5.57;3.07;;;3.20;99.90;4.00;94992.00;;;;5037757;28;20459;-68
2022/11/18 05:37:33;;;;;;;2.93;2.63;;;3.30;99.90;4.30;94990.00;;;;5044207;28;20464;-68
2022/11/18 05:40:22;;;;;;;4.70;4.07;;;3.30;99.90;4.30;94982.00;;;;5045822;28;20824;-68
2022/11/18 05:43:09;;;;;;;3.40;3.10;;;3.30;99.90;4.10;94973.00;;;;5038810;28;20450;-68
2022/11/18 05:45:59;;;;;;;3.57;2.50;;;3.40;99.90;4.10;94966.00;;;;5044022;28;20448;-69
2022/11/18 05:48:48;;;;;;;4.03;3.63;;;3.40;99.90;4.60;94960.00;;;;5037120;28;20437;-69
2022/11/18 05:51:36;;;;;;;5.87;3.10;;;3.50;99.90;4.60;94961.00;;;;5034464;28;20959;-69
2022/11/18 05:54:27;;;;;;;4.23;3.00;;;3.50;99.90;4.70;94953.00;;;;5034322;28;20451;-69
2022/11/18 05:57:16;;;;;;;8.10;4.87;;;3.60;99.90;4.80;94948.00;;;;5041965;28;20479;-68
2022/11/18 06:00:06;;;;;;;6.20;4.30;;;3.70;99.90;4.00;94946.00;;;;5040359;28;20498;-68
2022/11/18 06:02:57;;;;;;;4.17;3.17;;;2.00;99.90;4.00;94955.00;;;;5034879;28;20839;-68
2022/11/18 06:05:46;;;;;;;5.50;4.17;;;3.60;99.90;4.30;94967.00;;;;5042318;28;20459;-68
2022/11/18 06:08:39;;;;;;;5.50;4.93;;;3.60;99.90;4.60;94967.00;;;;5041920;28;20419;-68
2022/11/18 06:11:33;;;;;;;7.63;5.97;;;3.60;99.90;4.60;94968.00;;;;5044182;28;20448;-68
2022/11/18 06:14:26;;;;;;;8.63;5.03;;;3.60;99.90;4.50;94954.00;;;;5036669;28;20472;-68
2022/11/18 06:17:19;;;;;;;4.30;3.90;;;3.70;99.90;4.40;94941.00;;;;5045769;28;20467;-68
2022/11/18 06:20:09;;;;;;;6.80;3.63;;;3.70;99.90;4.80;94957.00;;;;5038386;28;20438;-70
2022/11/18 06:23:00;;;;;;;11.70;4.50;;;3.80;99.90;4.90;94958.00;;;;5037241;28;20424;-68
2022/11/18 06:25:49;;;;;;;3.17;2.87;;;3.80;99.90;4.90;94979.00;;;;5042602;28;20458;-70
2022/11/18 06:28:42;;;;;;;4.40;3.20;;;3.90;99.90;5.20;94982.00;;;;5040595;28;20436;-70
2022/11/18 06:31:30;;;;;;;8.43;3.47;;;4.00;99.90;5.40;94974.00;;;;5044864;28;20427;-68
2022/11/18 06:34:19;;;;;;;4.60;3.30;;;4.10;99.90;5.20;94968.00;;;;5040889;28;20251;-67
2022/11/18 06:37:15;;;;;;;5.53;3.17;;;4.10;99.90;5.00;94981.00;;;;5040045;28;20467;-68
2022/11/18 06:40:05;;;;;;;5.93;2.77;;;4.10;99.90;5.00;94982.00;;;;5042654;28;20201;-68
2022/11/18 06:49:12;;;;;;;5.17;3.43;;;4.10;99.90;5.40;94980.00;;;;5034956;28;20617;-68
2022/11/18 06:52:01;;;;;;;4.77;3.30;;;4.20;99.90;5.30;94979.00;;;;5048185;28;20428;-68
2022/11/18 06:54:49;;;;;;;3.20;2.90;;;4.20;99.90;4.80;94979.00;;;;5041850;28;20224;-68
2022/11/18 06:57:38;;;;;;;5.13;3.10;;;4.20;99.90;5.10;94981.00;;;;5041734;28;20435;-68
2022/11/18 07:00:27;;;;;;;4.67;3.33;;;4.20;99.90;5.30;94987.00;;;;5040468;28;20212;-68
2022/11/18 07:03:17;;;;;;;10.70;8.83;;;4.30;99.90;5.20;94993.00;;;;5035176;28;20621;-68
2022/11/18 07:06:06;;;;;;;4.07;3.07;;;4.30;99.90;5.40;94998.00;;;;5036306;28;20268;-69
2022/11/18 07:08:56;;;;;;;8.63;3.37;;;4.30;99.90;5.40;94993.00;;;;5045961;28;20571;-68
2022/11/18 07:11:44;;;;;;;2.77;2.57;;;4.30;99.90;5.50;94999.00;;;;5031598;28;20201;-68
2022/11/18 07:14:33;;;;;;;6.10;2.83;;;4.30;99.90;5.60;95012.00;;;;5038864;28;20224;-68
2022/11/18 07:17:22;;;;;;;3.37;3.07;;;4.40;99.90;5.80;95010.00;;;;5042019;28;20243;-68
2022/11/18 07:20:12;;;;;;;3.83;3.50;;;4.40;99.90;6.00;95019.00;;;;5034716;28;20197;-68
2022/11/18 07:23:01;;;;;;;5.87;4.43;;;4.50;99.90;6.10;95023.00;;;;5039130;28;20199;-68
2022/11/18 07:25:49;;;;;;;5.57;3.67;;;4.60;99.90;6.20;95027.00;;;;5048797;28;20232;-68
2022/11/18 07:28:38;;;;;;;4.63;3.27;;;4.70;99.90;6.10;95041.00;;;;5049375;28;20199;-68
2022/11/18 07:31:27;;;;;;;4.37;3.13;;;4.80;99.90;6.00;95034.00;;;;5046774;28;20618;-68
2022/11/18 07:34:16;;;;;;;3.53;3.10;;;4.90;99.90;6.20;95047.00;;;;5036506;28;20209;-68
2022/11/18 07:37:06;;;;;;;4.70;3.57;;;4.90;99.90;6.30;95044.00;;;;5046260;28;20221;-68
2022/11/18 07:39:54;;;;;;;6.50;3.50;;;5.00;99.90;6.50;95047.00;;;;5042845;28;20204;-68
2022/11/18 07:42:43;;;;;;;6.13;3.53;;;5.00;99.90;6.60;95054.00;;;;5039334;28;20239;-68
2022/11/18 07:45:32;;;;;;;5.00;3.30;;;5.10;99.90;6.50;95058.00;;;;5038012;28;20227;-68
2022/11/18 07:48:21;;;;;;;8.07;3.40;;;5.20;99.90;6.40;95061.00;;;;5038918;28;20212;-68
2022/11/18 07:51:10;;;;;;;2.20;2.00;;;5.20;99.90;6.60;95066.00;;;;5041228;28;20240;-68
2022/11/18 07:54:00;;;;;;;8.40;2.87;;;5.20;99.90;6.70;95059.00;;;;5040708;28;20683;-68
2022/11/18 07:56:49;;;;;;;4.60;2.80;;;5.30;99.90;6.90;95073.00;;;;5039985;28;20216;-67
2022/11/18 07:59:38;;;;;;;5.07;3.40;;;5.40;99.90;6.90;95065.00;;;;5041543;28;20204;-67
2022/11/18 08:02:27;;;;;;;6.67;4.60;;;5.40;99.90;7.00;95059.00;;;;5048856;28;20644;-68
2022/11/18 08:05:15;;;;;;;12.27;5.37;;;5.50;99.90;7.10;95074.00;;;;5043203;28;20240;-67
2022/11/18 08:08:05;;;;;;;6.70;4.10;;;5.50;99.90;6.70;95080.00;;;;5040628;28;20193;-68
2022/11/18 08:10:58;;;;;;;6.13;4.07;;;5.60;99.90;6.90;95081.00;;;;5035689;28;20204;-68
2022/11/18 08:13:46;;;;;;;9.77;6.23;;;5.60;99.90;7.00;95073.00;;;;5038554;28;20193;-68
2022/11/18 08:16:35;;;;;;;8.13;6.23;;;5.60;99.90;7.00;95079.00;;;;5034220;28;20221;-67
2022/11/18 08:19:24;;;;;;;7.83;6.77;;;5.60;99.90;7.00;95084.00;;;;5032620;28;20193;-68
2022/11/18 08:22:12;;;;;;;13.00;8.23;;;5.60;99.90;7.10;95066.00;;;;5039566;28;20557;-68
2022/11/18 08:25:01;;;;;;;7.50;6.53;;;5.60;99.90;7.10;95060.00;;;;5046541;28;20712;-68
2022/11/18 08:27:51;;;;;;;12.30;8.93;;;5.70;99.90;7.10;95066.00;;;;5043320;28;20208;-68
2022/11/18 08:30:40;;;;;;;11.93;7.97;;;5.70;99.90;7.10;95062.00;;;;5041543;28;20212;-68
2022/11/18 08:33:29;;;;;;;13.30;5.77;;;5.70;99.90;6.80;95063.00;;;;5044872;28;20197;-68
2022/11/18 08:36:21;;;;;;;7.60;5.03;;;5.70;99.90;6.90;95051.00;;;;5037627;28;20229;-68
2022/11/18 08:39:12;;;;;;;11.23;6.40;;;5.70;99.90;6.80;95069.00;;;;5043974;28;20208;-68
2022/11/18 08:42:01;;;;;;;9.77;6.30;;;5.70;99.90;6.90;95065.00;;;;5045427;28;20229;-68
2022/11/18 08:44:51;;;;;;;13.83;7.73;;;5.70;99.90;6.80;95060.00;;;;5031474;28;20716;-68
2022/11/18 08:47:40;;;;;;;10.07;6.73;;;5.70;99.90;6.80;95057.00;;;;5047773;28;20208;-68
2022/11/18 08:50:28;;;;;;;6.70;5.40;;;5.70;99.90;7.10;95064.00;;;;5036322;28;20223;-68
2022/11/18 08:53:17;;;;;;;9.20;6.57;;;5.70;99.90;7.00;95049.00;;;;5046814;28;20598;-68
2022/11/18 08:56:06;;;;;;;5.23;3.73;;;5.70;99.90;6.70;95046.00;;;;5040356;28;20223;-68
2022/11/18 08:58:56;;;;;;;6.17;4.70;;;5.70;99.90;6.70;95073.00;;;;5047363;28;20212;-68
2022/11/18 09:01:46;;;;;;;7.37;4.63;;;5.70;99.90;6.70;95067.00;;;;5043109;28;20205;-68
2022/11/18 09:04:35;;;;;;;8.87;5.80;;;5.70;99.90;6.50;95070.00;;;;5048474;28;20220;-69
2022/11/18 09:07:24;;;;;;;9.33;6.90;;;5.60;99.90;6.60;95072.00;;;;5041892;28;20201;-68
2022/11/18 09:10:13;;;;;;;7.87;5.97;;;5.60;99.90;6.80;95071.00;;;;5040753;28;20207;-68
2022/11/18 09:13:01;;;;;;;9.43;6.20;;;5.70;99.90;6.90;95080.00;;;;5040865;28;20627;-68
2022/11/18 09:16:07;;;;;;;8.30;4.43;;;5.70;99.90;6.60;95091.00;;;;5035588;28;20220;-68
2022/11/18 09:18:58;;;;;;;10.77;5.57;;;5.70;99.90;6.70;95090.00;;;;5049595;28;20208;-68
2022/11/18 09:21:52;;;;;;;8.13;4.77;;;5.70;99.90;6.80;95071.00;;;;5035550;28;20691;-68
2022/11/18 09:24:42;;;;;;;5.60;4.53;;;5.80;99.90;6.90;95068.00;;;;5045755;28;20225;-68
2022/11/18 09:27:31;;;;;;;5.77;3.93;;;5.80;99.90;7.10;95083.00;;;;5050096;28;20212;-68
2022/11/18 09:30:19;;;;;;;8.13;6.80;;;5.90;99.90;7.10;95081.00;;;;5046895;28;20201;-68
2022/11/18 09:33:09;;;;;;;12.53;9.20;;;5.90;99.90;6.90;95072.00;;;;5040885;28;20581;-68
2022/11/18 09:35:59;;;;;;;12.40;9.23;;;5.90;99.90;7.00;95074.00;;;;5049952;28;20229;-68
2022/11/18 09:38:48;;;;;;;17.30;10.13;;;5.90;99.90;7.30;95076.00;;;;5039639;28;20251;-68
2022/11/18 09:41:45;;;;;;;15.90;9.83;;;6.00;99.90;7.50;95069.00;;;;5032948;28;20673;-68
2022/11/18 09:44:57;;;;;;;15.50;11.90;;;6.10;99.90;7.30;95079.00;;;;5040756;28;20217;-68
2022/11/18 09:47:46;;;;;;;22.53;15.43;;;6.10;99.90;7.30;95092.00;;;;5035526;28;20251;-68
2022/11/18 09:50:38;;;;;;;22.97;13.73;;;6.10;99.90;7.30;95078.00;;;;5043949;28;20200;-68
2022/11/18 09:53:42;;;;;;;13.83;9.13;;;6.20;99.90;7.30;95067.00;;;;5046711;28;20211;-68
2022/11/18 09:56:30;;;;;;;11.23;7.83;;;6.20;99.90;7.20;95082.00;;;;5042192;28;20294;-68
2022/11/18 09:59:22;;;;;;;11.90;7.40;;;6.20;99.90;7.10;95080.00;;;;5046541;28;20204;-71
2022/11/18 10:02:41;;;;;;;10.33;6.80;;;6.30;99.90;7.30;95094.00;;;;5044390;28;20209;-68
2022/11/18 10:05:33;;;;;;;11.70;7.20;;;6.30;99.90;7.70;95092.00;;;;5042104;28;20229;-68
2022/11/18 10:08:27;;;;;;;9.87;6.30;;;6.40;99.90;7.80;95105.00;;;;5033900;28;20205;-68
2022/11/18 10:11:20;;;;;;;7.43;6.63;;;6.40;99.90;7.50;95100.00;;;;5045569;28;20213;-69
2022/11/18 10:14:28;;;;;;;7.20;5.57;;;6.50;99.90;7.40;95097.00;;;;5035879;28;20201;-68
2022/11/18 10:17:37;;;;;;;7.57;5.70;;;6.50;99.90;7.50;95079.00;;;;5042057;28;20595;-69
2022/11/18 10:20:50;;;;;;;10.20;6.97;;;6.50;99.90;7.90;95083.00;;;;5030251;28;20676;-68
2022/11/18 10:23:50;;;;;;;10.77;6.77;;;6.60;99.90;8.40;95076.00;;;;5036722;28;20212;-68
2022/11/18 10:26:42;;;;;;;11.30;8.53;;;6.80;99.90;8.50;95079.00;;;;5042332;28;20220;-68
2022/11/18 10:29:31;;;;;;;12.70;9.00;;;6.90;99.90;8.60;95076.00;;;;5044664;28;20672;-68
2022/11/18 10:32:20;;;;;;;12.87;8.27;;;7.00;99.90;8.40;95071.00;;;;5045843;28;20810;-68
2022/11/18 10:35:26;;;;;;;8.53;6.60;;;7.00;99.90;8.30;95054.00;;;;5044107;28;20652;-68
2022/11/18 10:38:19;;;;;;;9.20;5.67;;;7.10;99.90;8.20;95065.00;;;;5031011;28;20718;-68
2022/11/18 10:41:13;;;;;;;6.73;5.13;;;7.10;99.90;8.50;95066.00;;;;5040143;28;20201;-68
2022/11/18 10:44:03;;;;;;;8.33;6.03;;;7.10;99.90;8.60;95066.00;;;;5038984;28;20209;-68
2022/11/18 10:46:55;;;;;;;8.37;5.20;;;7.20;99.90;8.50;95045.00;;;;5037875;28;20740;-68
2022/11/18 10:49:44;;;;;;;12.47;6.40;;;7.20;99.90;8.50;95044.00;;;;5037871;28;20194;-68
2022/11/18 10:52:33;;;;;;;9.63;7.37;;;7.20;99.90;8.40;95042.00;;;;5049257;28;20193;-68
2022/11/18 10:55:24;;;;;;;9.23;5.40;;;7.20;99.90;8.10;95037.00;;;;5034930;28;20239;-68
2022/11/18 10:58:15;;;;;;;8.20;5.47;;;7.20;99.90;8.00;95028.00;;;;5038294;28;20267;-68
2022/11/18 11:01:20;;;;;;;7.00;5.60;;;7.10;99.90;8.00;95023.00;;;;5045915;28;20228;-67
2022/11/18 11:04:23;;;;;;;6.83;4.23;;;7.10;99.90;7.90;95014.00;;;;5034283;28;20206;-69
2022/11/18 11:07:26;;;;;;;8.97;6.63;;;7.10;99.90;8.20;95023.00;;;;5038457;28;20216;-68
2022/11/18 11:10:22;;;;;;;14.00;5.33;;;7.20;99.90;8.40;95027.00;;;;5048632;28;20580;-68
2022/11/18 11:13:15;;;;;;;9.07;7.03;;;7.20;99.90;8.80;95015.00;;;;5049613;28;20208;-68
2022/11/18 11:16:10;;;;;;;9.40;7.10;;;7.30;99.90;8.60;95016.00;;;;5049600;28;20274;-68
2022/11/18 11:19:02;;;;;;;8.20;6.00;;;7.40;99.90;8.60;95018.00;;;;5050387;28;20618;-68
2022/11/18 11:21:52;;;;;;;8.63;6.37;;;7.40;99.90;9.10;95024.00;;;;5049804;28;20660;-68
2022/11/18 11:24:41;;;;;;;7.50;5.00;;;7.50;99.90;9.30;95015.00;;;;5036961;28;20306;-68
2022/11/18 11:27:44;;;;;;;8.80;5.70;;;7.60;99.90;9.30;95023.00;;;;5036249;28;20259;-68
2022/11/18 11:31:13;;;;;;;8.33;6.33;;;7.70;99.90;9.30;95018.00;;;;5041193;28;20204;-67
2022/11/18 11:34:11;;;;;;;7.50;5.93;;;7.80;99.90;9.10;95033.00;;;;5035993;28;20252;-68
2022/11/18 11:37:14;;;;;;;9.30;6.30;;;7.80;99.90;9.10;95023.00;;;;5041744;28;20197;-67
2022/11/18 11:40:20;;;;;;;6.90;5.80;;;7.90;99.90;9.20;95026.00;;;;5045628;28;20211;-68
2022/11/18 11:43:32;;;;;;;7.20;5.60;;;7.90;99.90;9.40;95037.00;;;;5035623;28;20212;-68
2022/11/18 11:46:33;;;;;;;9.03;6.23;;;7.90;99.90;9.70;95031.00;;;;5049607;28;20220;-68
2022/11/18 11:49:30;;;;;;;9.10;6.40;;;8.00;99.90;9.70;95034.00;;;;5050472;28;20356;-67
2022/11/18 11:52:33;;;;;;;8.60;5.87;;;8.10;99.90;10.00;95032.00;;;;5036514;28;20293;-68
2022/11/18 11:55:28;;;;;;;8.43;6.70;;;8.20;99.90;10.10;95028.00;;;;5035462;28;20256;-68
2022/11/18 11:58:40;;;;;;;8.27;6.33;;;8.30;99.90;9.80;95028.00;;;;5039730;28;20260;-68
2022/11/18 12:01:42;;;;;;;13.47;7.80;;;8.40;99.90;9.50;95033.00;;;;5049156;28;20200;-68
2022/11/18 12:04:41;;;;;;;10.63;8.20;;;8.30;99.90;9.80;95029.00;;;;5040900;28;20196;-68
2022/11/18 12:07:38;;;;;;;13.70;7.43;;;8.40;99.90;10.00;95018.00;;;;5043612;28;20227;-67
2022/11/18 12:10:36;;;;;;;15.90;8.23;;;8.40;99.90;9.70;95023.00;;;;5039817;28;20215;-68
2022/11/18 12:13:38;;;;;;;11.40;7.50;;;8.40;99.90;10.10;95014.00;;;;5043827;28;20273;-67
2022/11/18 12:16:42;;;;;;;8.33;7.03;;;8.50;99.90;10.30;95022.00;;;;5044822;28;20306;-68
2022/11/18 12:19:31;;;;;;;7.70;6.70;;;8.60;99.90;10.70;95012.00;;;;5038203;28;20223;-67
2022/11/18 12:22:20;;;;;;;10.33;7.73;;;8.70;99.90;10.90;95011.00;;;;5044804;28;20611;-68
2022/11/18 12:25:59;;;;;;;10.53;8.23;;;8.90;99.90;10.50;95005.00;;;;5049112;28;20773;-68
2022/11/18 12:28:48;;;;;;;9.73;8.03;;;9.00;99.90;10.70;94985.00;;;;5041849;28;20224;-68
2022/11/18 12:31:38;;;;;;;11.80;8.90;;;9.10;99.90;11.30;94989.00;;;;5040500;28;20340;-68
2022/11/18 12:34:40;;;;;;;20.43;12.87;;;9.30;99.90;11.60;94996.00;;;;5048909;28;20243;-67
2022/11/18 12:37:44;;;;;;;28.73;16.23;;;9.50;99.90;11.80;94981.00;;;;5053297;28;20200;-68
2022/11/18 12:40:41;;;;;;;20.93;14.07;;;9.70;99.90;12.00;94984.00;;;;5051834;28;20583;-67
2022/11/18 12:44:05;;;;;;;27.70;14.93;;;10.00;99.90;12.30;94983.00;;;;5036101;28;20197;-68
2022/11/18 12:46:56;;;;;;;23.37;13.93;;;10.20;99.90;13.00;94971.00;;;;5048318;28;20591;-68
2022/11/18 12:50:14;;;;;;;21.37;14.50;;;10.50;99.90;13.20;94988.00;;;;5040321;28;20810;-68
2022/11/18 12:53:03;;;;;;;16.67;10.43;;;10.90;99.90;13.30;94988.00;;;;5042749;28;20208;-68
2022/11/18 12:55:52;;;;;;;22.50;15.00;;;11.10;99.90;13.20;94980.00;;;;5051989;28;20227;-68
2022/11/18 12:58:45;;;;;;;15.70;10.43;;;11.30;99.90;13.10;94999.00;;;;5037448;28;20232;-68
2022/11/18 13:01:34;;;;;;;17.03;11.13;;;11.30;99.90;13.00;94997.00;;;;5051973;28;20201;-68
2022/11/18 13:04:24;;;;;;;18.40;11.53;;;11.30;99.90;12.80;94996.00;;;;5052218;28;20621;-68
2022/11/18 13:10:24;;;;;;;8.60;7.53;;;11.10;99.90;12.40;94987.00;;;;5050944;28;20984;-67
2022/11/18 13:13:25;;;;;;;10.03;7.33;;;10.90;99.90;12.30;94980.00;;;;5046158;28;20216;-67
2022/11/18 13:19:28;;;;;;;19.20;9.53;;;10.70;99.90;12.20;94971.00;;;;5048991;28;20301;-68
2022/11/18 13:25:25;;;;;;;24.00;16.53;;;10.60;99.90;12.00;94974.00;;;;5033512;28;20716;-68
2022/11/18 13:28:28;;;;;;;21.83;14.57;;;10.50;99.90;11.70;94984.00;;;;5040039;28;20676;-68
2022/11/18 13:31:25;;;;;;;20.00;11.27;;;10.40;99.90;11.60;94982.00;;;;5045517;28;20204;-67